sensor_id;sensor_type;location;lat;lon;timestamp;P1;durP1;ratioP1;P2;durP2;ratioP2
78871;SDS011;68247;43.514;1.502;2023-09-12T00:00:18;7.37;;;4.60;;
78871;SDS011;68247;43.514;1.502;2023-09-12T00:02:44;6.50;;;4.43;;
78871;SDS011;68247;43.514;1.502;2023-09-12T00:05:09;5.13;;;3.63;;
78871;SDS011;68247;43.514;1.502;2023-09-12T00:07:35;6.47;;;3.83;;
78871;SDS011;68247;43.514;1.502;2023-09-12T00:10:01;7.95;;;3.30;;
78871;SDS011;68247;43.514;1.502;2023-09-12T00:12:27;4.40;;;2.90;;
78871;SDS011;68247;43.514;1.502;2023-09-12T00:14:52;6.33;;;2.93;;
78871;SDS011;68247;43.514;1.502;2023-09-12T00:17:18;5.43;;;2.63;;
78871;SDS011;68247;43.514;1.502;2023-09-12T00:19:44;4.10;;;2.53;;
78871;SDS011;68247;43.514;1.502;2023-09-12T00:22:09;6.67;;;3.17;;
78871;SDS011;68247;43.514;1.502;2023-09-12T00:24:34;5.87;;;2.93;;
78871;SDS011;68247;43.514;1.502;2023-09-12T00:27:00;3.87;;;2.47;;
78871;SDS011;68247;43.514;1.502;2023-09-12T00:29:25;5.70;;;2.70;;
78871;SDS011;68247;43.514;1.502;2023-09-12T00:31:51;5.90;;;2.70;;
78871;SDS011;68247;43.514;1.502;2023-09-12T00:34:16;4.83;;;2.80;;
78871;SDS011;68247;43.514;1.502;2023-09-12T00:36:42;4.57;;;2.35;;
78871;SDS011;68247;43.514;1.502;2023-09-12T00:39:08;4.33;;;2.57;;
78871;SDS011;68247;43.514;1.502;2023-09-12T00:41:33;4.80;;;2.60;;
78871;SDS011;68247;43.514;1.502;2023-09-12T00:43:58;4.17;;;2.73;;
78871;SDS011;68247;43.514;1.502;2023-09-12T00:46:24;5.07;;;2.37;;
78871;SDS011;68247;43.514;1.502;2023-09-12T00:48:50;4.73;;;2.37;;
78871;SDS011;68247;43.514;1.502;2023-09-12T00:51:16;6.30;;;2.67;;
78871;SDS011;68247;43.514;1.502;2023-09-12T00:53:42;6.22;;;2.75;;
78871;SDS011;68247;43.514;1.502;2023-09-12T00:56:08;4.82;;;2.80;;
78871;SDS011;68247;43.514;1.502;2023-09-12T00:58:33;5.60;;;2.60;;
78871;SDS011;68247;43.514;1.502;2023-09-12T01:00:59;4.73;;;2.93;;
78871;SDS011;68247;43.514;1.502;2023-09-12T01:03:24;6.80;;;3.00;;
78871;SDS011;68247;43.514;1.502;2023-09-12T01:05:50;5.63;;;2.55;;
78871;SDS011;68247;43.514;1.502;2023-09-12T01:08:16;4.40;;;2.50;;
78871;SDS011;68247;43.514;1.502;2023-09-12T01:10:42;5.55;;;2.67;;
78871;SDS011;68247;43.514;1.502;2023-09-12T01:13:11;6.32;;;2.70;;
78871;SDS011;68247;43.514;1.502;2023-09-12T01:15:40;5.10;;;2.72;;
78871;SDS011;68247;43.514;1.502;2023-09-12T01:18:06;6.70;;;3.00;;
78871;SDS011;68247;43.514;1.502;2023-09-12T01:20:32;6.50;;;2.70;;
78871;SDS011;68247;43.514;1.502;2023-09-12T01:23:00;5.40;;;2.75;;
78871;SDS011;68247;43.514;1.502;2023-09-12T01:28:24;6.23;;;2.97;;
78871;SDS011;68247;43.514;1.502;2023-09-12T01:30:52;6.07;;;2.88;;
78871;SDS011;68247;43.514;1.502;2023-09-12T01:33:18;6.25;;;2.88;;
78871;SDS011;68247;43.514;1.502;2023-09-12T01:35:44;5.57;;;2.85;;
78871;SDS011;68247;43.514;1.502;2023-09-12T01:38:11;5.90;;;2.63;;
78871;SDS011;68247;43.514;1.502;2023-09-12T01:40:46;6.05;;;2.80;;
78871;SDS011;68247;43.514;1.502;2023-09-12T01:43:15;4.88;;;2.85;;
78871;SDS011;68247;43.514;1.502;2023-09-12T01:45:42;5.85;;;3.10;;
78871;SDS011;68247;43.514;1.502;2023-09-12T01:48:07;4.93;;;3.20;;
78871;SDS011;68247;43.514;1.502;2023-09-12T01:50:33;5.43;;;2.97;;
78871;SDS011;68247;43.514;1.502;2023-09-12T01:52:59;6.82;;;2.58;;
78871;SDS011;68247;43.514;1.502;2023-09-12T01:55:25;5.40;;;2.73;;
78871;SDS011;68247;43.514;1.502;2023-09-12T02:04:12;7.20;;;3.08;;
78871;SDS011;68247;43.514;1.502;2023-09-12T02:06:38;5.20;;;3.20;;
78871;SDS011;68247;43.514;1.502;2023-09-12T02:09:03;5.70;;;3.10;;
78871;SDS011;68247;43.514;1.502;2023-09-12T02:11:29;6.47;;;3.67;;
78871;SDS011;68247;43.514;1.502;2023-09-12T02:13:54;6.47;;;4.10;;
78871;SDS011;68247;43.514;1.502;2023-09-12T02:16:19;7.43;;;3.97;;
78871;SDS011;68247;43.514;1.502;2023-09-12T02:18:45;8.13;;;4.27;;
78871;SDS011;68247;43.514;1.502;2023-09-12T02:21:10;8.67;;;4.40;;
78871;SDS011;68247;43.514;1.502;2023-09-12T02:23:35;9.67;;;4.43;;
78871;SDS011;68247;43.514;1.502;2023-09-12T02:26:01;8.10;;;4.60;;
78871;SDS011;68247;43.514;1.502;2023-09-12T02:28:26;7.63;;;4.33;;
78871;SDS011;68247;43.514;1.502;2023-09-12T02:30:52;9.27;;;4.30;;
78871;SDS011;68247;43.514;1.502;2023-09-12T02:33:17;9.13;;;4.40;;
78871;SDS011;68247;43.514;1.502;2023-09-12T02:35:43;9.15;;;4.72;;
78871;SDS011;68247;43.514;1.502;2023-09-12T02:38:09;11.70;;;4.43;;
78871;SDS011;68247;43.514;1.502;2023-09-12T02:40:35;8.23;;;4.30;;
78871;SDS011;68247;43.514;1.502;2023-09-12T02:43:01;8.00;;;4.50;;
78871;SDS011;68247;43.514;1.502;2023-09-12T02:45:26;7.80;;;4.72;;
78871;SDS011;68247;43.514;1.502;2023-09-12T02:47:52;8.23;;;4.50;;
78871;SDS011;68247;43.514;1.502;2023-09-12T02:50:17;8.37;;;4.83;;
78871;SDS011;68247;43.514;1.502;2023-09-12T02:52:42;7.37;;;4.80;;
78871;SDS011;68247;43.514;1.502;2023-09-12T02:55:08;8.15;;;4.15;;
78871;SDS011;68247;43.514;1.502;2023-09-12T02:57:34;7.20;;;4.40;;
78871;SDS011;68247;43.514;1.502;2023-09-12T02:59:59;9.00;;;4.32;;
78871;SDS011;68247;43.514;1.502;2023-09-12T03:02:24;7.90;;;4.43;;
78871;SDS011;68247;43.514;1.502;2023-09-12T03:04:50;9.00;;;4.47;;
78871;SDS011;68247;43.514;1.502;2023-09-12T03:07:15;9.37;;;4.87;;
78871;SDS011;68247;43.514;1.502;2023-09-12T03:09:41;9.27;;;4.70;;
78871;SDS011;68247;43.514;1.502;2023-09-12T03:12:06;7.45;;;4.60;;
78871;SDS011;68247;43.514;1.502;2023-09-12T03:14:32;8.67;;;5.03;;
78871;SDS011;68247;43.514;1.502;2023-09-12T03:16:57;8.27;;;4.57;;
78871;SDS011;68247;43.514;1.502;2023-09-12T03:19:23;9.95;;;4.90;;
78871;SDS011;68247;43.514;1.502;2023-09-12T03:21:48;10.50;;;4.60;;
78871;SDS011;68247;43.514;1.502;2023-09-12T03:24:14;7.43;;;4.83;;
78871;SDS011;68247;43.514;1.502;2023-09-12T03:26:39;10.00;;;4.67;;
78871;SDS011;68247;43.514;1.502;2023-09-12T03:29:04;9.10;;;4.50;;
78871;SDS011;68247;43.514;1.502;2023-09-12T03:31:30;7.53;;;4.50;;
78871;SDS011;68247;43.514;1.502;2023-09-12T03:33:55;8.37;;;4.63;;
78871;SDS011;68247;43.514;1.502;2023-09-12T03:36:21;9.00;;;4.82;;
78871;SDS011;68247;43.514;1.502;2023-09-12T03:38:46;6.93;;;4.60;;
78871;SDS011;68247;43.514;1.502;2023-09-12T03:41:12;8.17;;;4.50;;
78871;SDS011;68247;43.514;1.502;2023-09-12T03:43:37;9.27;;;4.73;;
78871;SDS011;68247;43.514;1.502;2023-09-12T03:46:03;8.73;;;4.90;;
78871;SDS011;68247;43.514;1.502;2023-09-12T03:48:29;8.83;;;4.83;;
78871;SDS011;68247;43.514;1.502;2023-09-12T03:50:57;6.50;;;4.47;;
78871;SDS011;68247;43.514;1.502;2023-09-12T03:53:23;7.77;;;4.63;;
78871;SDS011;68247;43.514;1.502;2023-09-12T03:55:48;6.13;;;4.10;;
78871;SDS011;68247;43.514;1.502;2023-09-12T03:58:14;8.97;;;4.80;;
78871;SDS011;68247;43.514;1.502;2023-09-12T04:00:39;8.63;;;4.95;;
78871;SDS011;68247;43.514;1.502;2023-09-12T04:03:05;7.70;;;4.50;;
78871;SDS011;68247;43.514;1.502;2023-09-12T04:05:30;7.87;;;4.80;;
78871;SDS011;68247;43.514;1.502;2023-09-12T04:07:55;6.67;;;4.03;;
78871;SDS011;68247;43.514;1.502;2023-09-12T04:10:21;7.27;;;4.23;;
78871;SDS011;68247;43.514;1.502;2023-09-12T04:12:46;6.63;;;4.50;;
78871;SDS011;68247;43.514;1.502;2023-09-12T04:15:12;6.80;;;4.50;;
78871;SDS011;68247;43.514;1.502;2023-09-12T04:17:37;9.27;;;4.50;;
78871;SDS011;68247;43.514;1.502;2023-09-12T04:20:03;8.65;;;4.30;;
78871;SDS011;68247;43.514;1.502;2023-09-12T04:22:29;7.80;;;4.37;;
78871;SDS011;68247;43.514;1.502;2023-09-12T04:24:55;9.48;;;4.65;;
78871;SDS011;68247;43.514;1.502;2023-09-12T04:27:20;7.87;;;4.43;;
78871;SDS011;68247;43.514;1.502;2023-09-12T04:29:46;9.40;;;4.47;;
78871;SDS011;68247;43.514;1.502;2023-09-12T04:32:11;6.15;;;4.15;;
78871;SDS011;68247;43.514;1.502;2023-09-12T04:34:37;5.93;;;3.87;;
78871;SDS011;68247;43.514;1.502;2023-09-12T04:37:02;8.23;;;3.87;;
78871;SDS011;68247;43.514;1.502;2023-09-12T04:39:30;6.97;;;3.95;;
78871;SDS011;68247;43.514;1.502;2023-09-12T04:41:56;6.53;;;4.10;;
78871;SDS011;68247;43.514;1.502;2023-09-12T04:44:21;7.25;;;4.03;;
78871;SDS011;68247;43.514;1.502;2023-09-12T04:46:46;7.27;;;4.13;;
78871;SDS011;68247;43.514;1.502;2023-09-12T04:49:12;8.40;;;4.70;;
78871;SDS011;68247;43.514;1.502;2023-09-12T04:51:37;6.17;;;4.37;;
78871;SDS011;68247;43.514;1.502;2023-09-12T04:54:03;7.80;;;4.30;;
78871;SDS011;68247;43.514;1.502;2023-09-12T04:56:28;5.73;;;4.07;;
78871;SDS011;68247;43.514;1.502;2023-09-12T04:58:54;6.20;;;4.20;;
78871;SDS011;68247;43.514;1.502;2023-09-12T05:01:19;8.20;;;4.38;;
78871;SDS011;68247;43.514;1.502;2023-09-12T05:03:45;7.37;;;3.90;;
78871;SDS011;68247;43.514;1.502;2023-09-12T05:06:10;7.60;;;4.70;;
78871;SDS011;68247;43.514;1.502;2023-09-12T05:08:36;7.68;;;4.80;;
78871;SDS011;68247;43.514;1.502;2023-09-12T05:11:02;8.30;;;4.83;;
78871;SDS011;68247;43.514;1.502;2023-09-12T05:13:28;8.48;;;4.80;;
78871;SDS011;68247;43.514;1.502;2023-09-12T05:15:54;9.30;;;4.78;;
78871;SDS011;68247;43.514;1.502;2023-09-12T05:18:20;8.33;;;4.83;;
78871;SDS011;68247;43.514;1.502;2023-09-12T05:20:46;7.97;;;4.72;;
78871;SDS011;68247;43.514;1.502;2023-09-12T05:23:11;7.83;;;4.47;;
78871;SDS011;68247;43.514;1.502;2023-09-12T05:25:37;8.90;;;5.40;;
78871;SDS011;68247;43.514;1.502;2023-09-12T05:28:02;8.90;;;4.97;;
78871;SDS011;68247;43.514;1.502;2023-09-12T05:30:28;9.05;;;4.60;;
78871;SDS011;68247;43.514;1.502;2023-09-12T05:32:53;9.03;;;4.50;;
78871;SDS011;68247;43.514;1.502;2023-09-12T05:35:19;6.90;;;4.73;;
78871;SDS011;68247;43.514;1.502;2023-09-12T05:37:44;6.53;;;4.57;;
78871;SDS011;68247;43.514;1.502;2023-09-12T05:40:09;9.80;;;5.10;;
78871;SDS011;68247;43.514;1.502;2023-09-12T05:42:35;8.33;;;4.80;;
78871;SDS011;68247;43.514;1.502;2023-09-12T05:45:01;9.35;;;4.93;;
78871;SDS011;68247;43.514;1.502;2023-09-12T05:47:27;6.97;;;5.07;;
78871;SDS011;68247;43.514;1.502;2023-09-12T05:49:52;9.53;;;5.17;;
78871;SDS011;68247;43.514;1.502;2023-09-12T05:52:18;8.43;;;4.78;;
78871;SDS011;68247;43.514;1.502;2023-09-12T05:54:44;7.63;;;4.70;;
78871;SDS011;68247;43.514;1.502;2023-09-12T05:57:09;8.77;;;5.00;;
78871;SDS011;68247;43.514;1.502;2023-09-12T05:59:38;8.00;;;5.03;;
78871;SDS011;68247;43.514;1.502;2023-09-12T06:02:04;8.57;;;4.97;;
78871;SDS011;68247;43.514;1.502;2023-09-12T06:04:31;7.32;;;4.70;;
78871;SDS011;68247;43.514;1.502;2023-09-12T06:06:57;9.50;;;5.13;;
78871;SDS011;68247;43.514;1.502;2023-09-12T06:09:22;7.97;;;4.70;;
78871;SDS011;68247;43.514;1.502;2023-09-12T06:11:48;8.53;;;5.17;;
78871;SDS011;68247;43.514;1.502;2023-09-12T06:14:13;8.93;;;4.70;;
78871;SDS011;68247;43.514;1.502;2023-09-12T06:16:38;7.50;;;4.68;;
78871;SDS011;68247;43.514;1.502;2023-09-12T06:19:04;7.37;;;4.67;;
78871;SDS011;68247;43.514;1.502;2023-09-12T06:21:29;10.37;;;4.90;;
78871;SDS011;68247;43.514;1.502;2023-09-12T06:24:07;7.00;;;4.50;;
78871;SDS011;68247;43.514;1.502;2023-09-12T06:26:44;6.78;;;4.40;;
78871;SDS011;68247;43.514;1.502;2023-09-12T06:29:09;6.93;;;4.13;;
78871;SDS011;68247;43.514;1.502;2023-09-12T06:31:35;8.00;;;4.30;;
78871;SDS011;68247;43.514;1.502;2023-09-12T06:34:01;7.83;;;4.50;;
78871;SDS011;68247;43.514;1.502;2023-09-12T06:36:27;7.07;;;4.22;;
78871;SDS011;68247;43.514;1.502;2023-09-12T06:38:56;7.20;;;4.30;;
78871;SDS011;68247;43.514;1.502;2023-09-12T06:41:21;8.93;;;3.90;;
78871;SDS011;68247;43.514;1.502;2023-09-12T06:43:47;6.72;;;4.30;;
78871;SDS011;68247;43.514;1.502;2023-09-12T06:46:12;6.40;;;4.13;;
78871;SDS011;68247;43.514;1.502;2023-09-12T06:48:38;7.40;;;4.53;;
78871;SDS011;68247;43.514;1.502;2023-09-12T06:51:08;10.50;;;4.23;;
78871;SDS011;68247;43.514;1.502;2023-09-12T06:53:34;8.13;;;4.45;;
78871;SDS011;68247;43.514;1.502;2023-09-12T06:55:59;7.90;;;4.40;;
78871;SDS011;68247;43.514;1.502;2023-09-12T06:58:25;7.40;;;4.40;;
78871;SDS011;68247;43.514;1.502;2023-09-12T07:00:51;7.68;;;4.75;;
78871;SDS011;68247;43.514;1.502;2023-09-12T07:03:16;8.87;;;4.33;;
78871;SDS011;68247;43.514;1.502;2023-09-12T07:05:42;9.50;;;4.60;;
78871;SDS011;68247;43.514;1.502;2023-09-12T07:08:08;7.67;;;4.50;;
78871;SDS011;68247;43.514;1.502;2023-09-12T07:10:34;7.45;;;4.70;;
78871;SDS011;68247;43.514;1.502;2023-09-12T07:13:01;7.40;;;4.53;;
78871;SDS011;68247;43.514;1.502;2023-09-12T07:15:26;9.90;;;4.32;;
78871;SDS011;68247;43.514;1.502;2023-09-12T07:17:52;5.97;;;4.47;;
78871;SDS011;68247;43.514;1.502;2023-09-12T07:20:19;5.97;;;3.97;;
78871;SDS011;68247;43.514;1.502;2023-09-12T07:22:45;7.53;;;4.47;;
78871;SDS011;68247;43.514;1.502;2023-09-12T07:25:11;6.53;;;4.13;;
78871;SDS011;68247;43.514;1.502;2023-09-12T07:27:38;7.55;;;4.20;;
78871;SDS011;68247;43.514;1.502;2023-09-12T07:30:04;5.68;;;3.85;;
78871;SDS011;68247;43.514;1.502;2023-09-12T07:32:31;8.80;;;4.40;;
78871;SDS011;68247;43.514;1.502;2023-09-12T07:34:56;9.10;;;4.40;;
78871;SDS011;68247;43.514;1.502;2023-09-12T07:37:21;7.57;;;4.50;;
78871;SDS011;68247;43.514;1.502;2023-09-12T07:39:47;8.97;;;4.67;;
78871;SDS011;68247;43.514;1.502;2023-09-12T07:42:12;7.80;;;4.37;;
78871;SDS011;68247;43.514;1.502;2023-09-12T07:44:38;10.27;;;5.00;;
78871;SDS011;68247;43.514;1.502;2023-09-12T07:47:03;6.93;;;4.50;;
78871;SDS011;68247;43.514;1.502;2023-09-12T07:49:29;7.53;;;5.00;;
78871;SDS011;68247;43.514;1.502;2023-09-12T07:51:54;7.13;;;4.47;;
78871;SDS011;68247;43.514;1.502;2023-09-12T07:54:22;8.77;;;4.75;;
78871;SDS011;68247;43.514;1.502;2023-09-12T07:56:47;6.77;;;4.90;;
78871;SDS011;68247;43.514;1.502;2023-09-12T07:59:13;7.53;;;4.67;;
78871;SDS011;68247;43.514;1.502;2023-09-12T08:01:39;7.70;;;5.43;;
78871;SDS011;68247;43.514;1.502;2023-09-12T08:04:05;7.10;;;4.87;;
78871;SDS011;68247;43.514;1.502;2023-09-12T08:06:31;7.77;;;4.70;;
78871;SDS011;68247;43.514;1.502;2023-09-12T08:08:57;6.85;;;4.40;;
78871;SDS011;68247;43.514;1.502;2023-09-12T08:11:23;9.00;;;4.47;;
78871;SDS011;68247;43.514;1.502;2023-09-12T08:13:48;7.05;;;4.38;;
78871;SDS011;68247;43.514;1.502;2023-09-12T08:16:14;8.23;;;4.23;;
78871;SDS011;68247;43.514;1.502;2023-09-12T08:18:40;8.80;;;4.30;;
78871;SDS011;68247;43.514;1.502;2023-09-12T08:21:06;10.47;;;4.80;;
78871;SDS011;68247;43.514;1.502;2023-09-12T08:23:31;7.00;;;4.33;;
78871;SDS011;68247;43.514;1.502;2023-09-12T08:25:56;6.67;;;4.07;;
78871;SDS011;68247;43.514;1.502;2023-09-12T08:28:22;9.13;;;4.53;;
78871;SDS011;68247;43.514;1.502;2023-09-12T08:30:47;5.83;;;4.20;;
78871;SDS011;68247;43.514;1.502;2023-09-12T08:33:13;7.73;;;4.13;;
78871;SDS011;68247;43.514;1.502;2023-09-12T08:35:38;9.27;;;3.87;;
78871;SDS011;68247;43.514;1.502;2023-09-12T08:38:03;5.15;;;3.80;;
78871;SDS011;68247;43.514;1.502;2023-09-12T08:40:29;6.57;;;3.80;;
78871;SDS011;68247;43.514;1.502;2023-09-12T08:42:55;6.78;;;3.95;;
78871;SDS011;68247;43.514;1.502;2023-09-12T08:45:22;8.37;;;4.50;;
78871;SDS011;68247;43.514;1.502;2023-09-12T08:47:51;7.35;;;4.88;;
78871;SDS011;68247;43.514;1.502;2023-09-12T08:50:18;7.20;;;4.33;;
78871;SDS011;68247;43.514;1.502;2023-09-12T08:52:46;8.10;;;4.65;;
78871;SDS011;68247;43.514;1.502;2023-09-12T08:55:12;7.50;;;4.30;;
78871;SDS011;68247;43.514;1.502;2023-09-12T08:57:38;8.00;;;4.30;;
78871;SDS011;68247;43.514;1.502;2023-09-12T09:00:05;8.73;;;4.85;;
78871;SDS011;68247;43.514;1.502;2023-09-12T09:02:32;9.13;;;4.45;;
78871;SDS011;68247;43.514;1.502;2023-09-12T09:04:59;6.88;;;4.60;;
78871;SDS011;68247;43.514;1.502;2023-09-12T09:07:24;8.65;;;4.68;;
78871;SDS011;68247;43.514;1.502;2023-09-12T09:09:50;9.70;;;4.77;;
78871;SDS011;68247;43.514;1.502;2023-09-12T09:12:18;10.43;;;5.57;;
78871;SDS011;68247;43.514;1.502;2023-09-12T09:14:44;8.65;;;5.68;;
78871;SDS011;68247;43.514;1.502;2023-09-12T09:17:10;8.63;;;6.23;;
78871;SDS011;68247;43.514;1.502;2023-09-12T09:19:43;9.10;;;6.18;;
78871;SDS011;68247;43.514;1.502;2023-09-12T09:22:10;14.50;;;5.88;;
78871;SDS011;68247;43.514;1.502;2023-09-12T09:24:35;9.13;;;6.00;;
78871;SDS011;68247;43.514;1.502;2023-09-12T09:27:01;13.03;;;6.40;;
78871;SDS011;68247;43.514;1.502;2023-09-12T09:29:27;9.48;;;5.85;;
78871;SDS011;68247;43.514;1.502;2023-09-12T09:32:01;11.98;;;6.07;;
78871;SDS011;68247;43.514;1.502;2023-09-12T09:34:30;8.77;;;6.27;;
78871;SDS011;68247;43.514;1.502;2023-09-12T09:36:57;10.10;;;6.45;;
78871;SDS011;68247;43.514;1.502;2023-09-12T09:39:24;12.80;;;7.75;;
78871;SDS011;68247;43.514;1.502;2023-09-12T09:41:54;15.38;;;7.60;;
78871;SDS011;68247;43.514;1.502;2023-09-12T09:44:21;12.82;;;6.70;;
78871;SDS011;68247;43.514;1.502;2023-09-12T09:46:50;11.17;;;6.60;;
78871;SDS011;68247;43.514;1.502;2023-09-12T09:49:18;9.00;;;6.13;;
78871;SDS011;68247;43.514;1.502;2023-09-12T09:51:44;9.38;;;6.18;;
78871;SDS011;68247;43.514;1.502;2023-09-12T09:54:11;11.20;;;6.07;;
78871;SDS011;68247;43.514;1.502;2023-09-12T09:56:46;11.05;;;6.30;;
78871;SDS011;68247;43.514;1.502;2023-09-12T09:59:15;9.75;;;6.18;;
78871;SDS011;68247;43.514;1.502;2023-09-12T10:01:41;8.57;;;5.63;;
78871;SDS011;68247;43.514;1.502;2023-09-12T10:04:08;8.65;;;5.22;;
78871;SDS011;68247;43.514;1.502;2023-09-12T10:06:35;7.83;;;4.90;;
78871;SDS011;68247;43.514;1.502;2023-09-12T10:09:01;8.00;;;5.45;;
78871;SDS011;68247;43.514;1.502;2023-09-12T10:11:31;8.77;;;5.43;;
78871;SDS011;68247;43.514;1.502;2023-09-12T10:14:03;9.53;;;5.80;;
78871;SDS011;68247;43.514;1.502;2023-09-12T10:16:30;8.80;;;5.70;;
78871;SDS011;68247;43.514;1.502;2023-09-12T10:19:31;8.82;;;5.00;;
78871;SDS011;68247;43.514;1.502;2023-09-12T10:21:52;9.73;;;4.93;;
78871;SDS011;68247;43.514;1.502;2023-09-12T10:24:23;7.63;;;4.50;;
78871;SDS011;68247;43.514;1.502;2023-09-12T10:26:50;8.93;;;4.83;;
78871;SDS011;68247;43.514;1.502;2023-09-12T10:29:15;7.63;;;5.07;;
78871;SDS011;68247;43.514;1.502;2023-09-12T10:31:41;7.13;;;4.63;;
78871;SDS011;68247;43.514;1.502;2023-09-12T10:34:07;8.43;;;5.13;;
78871;SDS011;68247;43.514;1.502;2023-09-12T10:36:41;9.95;;;5.05;;
78871;SDS011;68247;43.514;1.502;2023-09-12T10:39:07;8.30;;;5.10;;
78871;SDS011;68247;43.514;1.502;2023-09-12T10:41:37;8.65;;;4.82;;
78871;SDS011;68247;43.514;1.502;2023-09-12T10:44:09;10.40;;;5.25;;
78871;SDS011;68247;43.514;1.502;2023-09-12T10:46:39;7.82;;;5.18;;
78871;SDS011;68247;43.514;1.502;2023-09-12T10:49:08;8.52;;;5.65;;
78871;SDS011;68247;43.514;1.502;2023-09-12T10:51:38;8.33;;;5.53;;
78871;SDS011;68247;43.514;1.502;2023-09-12T10:54:04;7.97;;;5.13;;
78871;SDS011;68247;43.514;1.502;2023-09-12T10:56:30;8.32;;;5.18;;
78871;SDS011;68247;43.514;1.502;2023-09-12T11:01:34;8.90;;;5.30;;
78871;SDS011;68247;43.514;1.502;2023-09-12T11:04:46;9.30;;;5.10;;
78871;SDS011;68247;43.514;1.502;2023-09-12T11:06:49;8.10;;;4.93;;
78871;SDS011;68247;43.514;1.502;2023-09-12T11:09:21;8.98;;;5.25;;
78871;SDS011;68247;43.514;1.502;2023-09-12T11:11:48;7.90;;;5.32;;
78871;SDS011;68247;43.514;1.502;2023-09-12T11:14:15;8.75;;;5.13;;
78871;SDS011;68247;43.514;1.502;2023-09-12T11:16:41;9.17;;;5.17;;
78871;SDS011;68247;43.514;1.502;2023-09-12T11:19:12;11.25;;;5.32;;
78871;SDS011;68247;43.514;1.502;2023-09-12T11:21:48;10.30;;;5.60;;
78871;SDS011;68247;43.514;1.502;2023-09-12T11:24:15;10.18;;;5.45;;
78871;SDS011;68247;43.514;1.502;2023-09-12T11:26:58;8.52;;;5.32;;
78871;SDS011;68247;43.514;1.502;2023-09-12T11:29:28;9.70;;;5.13;;
78871;SDS011;68247;43.514;1.502;2023-09-12T11:32:01;11.00;;;5.13;;
78871;SDS011;68247;43.514;1.502;2023-09-12T11:34:28;8.23;;;5.25;;
78871;SDS011;68247;43.514;1.502;2023-09-12T11:36:55;8.98;;;5.15;;
78871;SDS011;68247;43.514;1.502;2023-09-12T11:39:28;7.40;;;4.50;;
78871;SDS011;68247;43.514;1.502;2023-09-12T11:41:58;6.20;;;4.37;;
78871;SDS011;68247;43.514;1.502;2023-09-12T11:44:25;7.63;;;4.45;;
78871;SDS011;68247;43.514;1.502;2023-09-12T11:46:51;6.40;;;4.53;;
78871;SDS011;68247;43.514;1.502;2023-09-12T11:49:17;9.07;;;4.32;;
78871;SDS011;68247;43.514;1.502;2023-09-12T11:51:53;6.33;;;4.27;;
78871;SDS011;68247;43.514;1.502;2023-09-12T11:54:25;6.47;;;4.30;;
78871;SDS011;68247;43.514;1.502;2023-09-12T11:56:51;8.13;;;4.50;;
78871;SDS011;68247;43.514;1.502;2023-09-12T11:59:25;7.53;;;3.92;;
78871;SDS011;68247;43.514;1.502;2023-09-12T12:01:51;8.30;;;4.32;;
78871;SDS011;68247;43.514;1.502;2023-09-12T12:04:17;7.27;;;4.70;;
78871;SDS011;68247;43.514;1.502;2023-09-12T12:06:45;7.90;;;4.65;;
78871;SDS011;68247;43.514;1.502;2023-09-12T12:09:10;7.13;;;4.27;;
78871;SDS011;68247;43.514;1.502;2023-09-12T12:11:36;6.10;;;4.50;;
78871;SDS011;68247;43.514;1.502;2023-09-12T12:14:15;7.77;;;4.70;;
78871;SDS011;68247;43.514;1.502;2023-09-12T12:16:41;7.55;;;4.60;;
78871;SDS011;68247;43.514;1.502;2023-09-12T12:19:08;7.93;;;4.20;;
78871;SDS011;68247;43.514;1.502;2023-09-12T12:21:34;7.60;;;4.35;;
78871;SDS011;68247;43.514;1.502;2023-09-12T12:24:00;7.65;;;4.90;;
78871;SDS011;68247;43.514;1.502;2023-09-12T12:26:26;7.78;;;4.53;;
78871;SDS011;68247;43.514;1.502;2023-09-12T12:28:52;7.30;;;4.60;;
78871;SDS011;68247;43.514;1.502;2023-09-12T12:31:19;11.07;;;5.40;;
78871;SDS011;68247;43.514;1.502;2023-09-12T12:33:48;8.43;;;4.63;;
78871;SDS011;68247;43.514;1.502;2023-09-12T12:36:14;7.30;;;4.75;;
78871;SDS011;68247;43.514;1.502;2023-09-12T12:38:39;11.13;;;4.87;;
78871;SDS011;68247;43.514;1.502;2023-09-12T12:41:08;6.97;;;5.03;;
78871;SDS011;68247;43.514;1.502;2023-09-12T12:43:34;8.80;;;4.93;;
78871;SDS011;68247;43.514;1.502;2023-09-12T12:45:59;9.13;;;5.13;;
78871;SDS011;68247;43.514;1.502;2023-09-12T12:48:32;6.43;;;4.67;;
78871;SDS011;68247;43.514;1.502;2023-09-12T12:50:58;9.70;;;4.50;;
78871;SDS011;68247;43.514;1.502;2023-09-12T12:53:40;11.83;;;4.60;;
78871;SDS011;68247;43.514;1.502;2023-09-12T12:56:06;8.02;;;4.90;;
78871;SDS011;68247;43.514;1.502;2023-09-12T12:58:31;6.00;;;3.95;;
78871;SDS011;68247;43.514;1.502;2023-09-12T13:00:57;9.43;;;5.17;;
78871;SDS011;68247;43.514;1.502;2023-09-12T13:03:22;7.07;;;4.73;;
78871;SDS011;68247;43.514;1.502;2023-09-12T13:05:48;8.30;;;5.20;;
78871;SDS011;68247;43.514;1.502;2023-09-12T13:08:13;7.67;;;5.13;;
78871;SDS011;68247;43.514;1.502;2023-09-12T13:10:38;8.32;;;4.93;;
78871;SDS011;68247;43.514;1.502;2023-09-12T13:13:04;9.63;;;5.43;;
78871;SDS011;68247;43.514;1.502;2023-09-12T13:15:29;9.13;;;5.93;;
78871;SDS011;68247;43.514;1.502;2023-09-12T13:17:55;8.00;;;5.30;;
78871;SDS011;68247;43.514;1.502;2023-09-12T13:20:20;9.35;;;5.53;;
78871;SDS011;68247;43.514;1.502;2023-09-12T13:22:45;12.97;;;5.93;;
78871;SDS011;68247;43.514;1.502;2023-09-12T13:25:11;12.90;;;6.97;;
78871;SDS011;68247;43.514;1.502;2023-09-12T13:27:36;16.60;;;8.30;;
78871;SDS011;68247;43.514;1.502;2023-09-12T13:30:02;23.65;;;11.07;;
78871;SDS011;68247;43.514;1.502;2023-09-12T13:32:30;16.73;;;8.60;;
78871;SDS011;68247;43.514;1.502;2023-09-12T13:34:55;13.47;;;7.47;;
78871;SDS011;68247;43.514;1.502;2023-09-12T13:37:21;10.20;;;6.30;;
78871;SDS011;68247;43.514;1.502;2023-09-12T13:39:46;10.93;;;6.00;;
78871;SDS011;68247;43.514;1.502;2023-09-12T13:42:14;8.02;;;5.10;;
78871;SDS011;68247;43.514;1.502;2023-09-12T13:44:43;7.40;;;5.03;;
78871;SDS011;68247;43.514;1.502;2023-09-12T13:47:09;7.97;;;4.65;;
78871;SDS011;68247;43.514;1.502;2023-09-12T13:49:34;8.13;;;4.87;;
78871;SDS011;68247;43.514;1.502;2023-09-12T13:52:00;8.23;;;5.10;;
78871;SDS011;68247;43.514;1.502;2023-09-12T13:54:25;9.20;;;5.20;;
78871;SDS011;68247;43.514;1.502;2023-09-12T13:56:50;7.73;;;5.70;;
78871;SDS011;68247;43.514;1.502;2023-09-12T13:59:16;9.95;;;5.45;;
78871;SDS011;68247;43.514;1.502;2023-09-12T14:01:45;10.50;;;6.05;;
78871;SDS011;68247;43.514;1.502;2023-09-12T14:04:11;9.20;;;5.77;;
78871;SDS011;68247;43.514;1.502;2023-09-12T14:06:36;9.67;;;5.40;;
78871;SDS011;68247;43.514;1.502;2023-09-12T14:09:01;8.77;;;5.30;;
78871;SDS011;68247;43.514;1.502;2023-09-12T14:11:27;8.90;;;5.20;;
78871;SDS011;68247;43.514;1.502;2023-09-12T14:13:52;8.27;;;5.03;;
78871;SDS011;68247;43.514;1.502;2023-09-12T14:16:18;12.53;;;5.90;;
78871;SDS011;68247;43.514;1.502;2023-09-12T14:18:43;8.20;;;5.40;;
78871;SDS011;68247;43.514;1.502;2023-09-12T14:21:08;7.87;;;5.30;;
78871;SDS011;68247;43.514;1.502;2023-09-12T14:23:34;9.10;;;5.70;;
78871;SDS011;68247;43.514;1.502;2023-09-12T14:25:59;11.53;;;5.73;;
78871;SDS011;68247;43.514;1.502;2023-09-12T14:28:25;8.70;;;5.30;;
78871;SDS011;68247;43.514;1.502;2023-09-12T14:30:50;6.43;;;5.10;;
78871;SDS011;68247;43.514;1.502;2023-09-12T14:33:17;8.23;;;5.18;;
78871;SDS011;68247;43.514;1.502;2023-09-12T14:35:43;6.40;;;4.93;;
78871;SDS011;68247;43.514;1.502;2023-09-12T14:38:09;7.40;;;5.03;;
78871;SDS011;68247;43.514;1.502;2023-09-12T14:40:34;6.27;;;5.20;;
78871;SDS011;68247;43.514;1.502;2023-09-12T14:43:00;7.70;;;4.97;;
78871;SDS011;68247;43.514;1.502;2023-09-12T14:45:27;6.90;;;5.07;;
78871;SDS011;68247;43.514;1.502;2023-09-12T14:47:52;7.20;;;4.72;;
78871;SDS011;68247;43.514;1.502;2023-09-12T14:50:20;8.02;;;5.15;;
78871;SDS011;68247;43.514;1.502;2023-09-12T14:52:48;7.37;;;4.63;;